sensor_id;sensor_type;location;lat;lon;timestamp;pressure;altitude;pressure_sealevel;temperature;humidity
7335;BME280;3708;42.632;23.378;2023-02-04T00:00:16;94076.78;;;5.32;51.17
7335;BME280;3708;42.632;23.378;2023-02-04T00:02:43;94065.59;;;5.45;50.61
7335;BME280;3708;42.632;23.378;2023-02-04T00:05:11;94071.47;;;5.51;50.61
7335;BME280;3708;42.632;23.378;2023-02-04T00:07:39;94067.72;;;5.29;52.06
7335;BME280;3708;42.632;23.378;2023-02-04T00:10:06;94072.91;;;5.29;52.41
7335;BME280;3708;42.632;23.378;2023-02-04T00:12:33;94058.69;;;5.00;53.64
7335;BME280;3708;42.632;23.378;2023-02-04T00:15:00;94063.88;;;5.13;53.63
7335;BME280;3708;42.632;23.378;2023-02-04T00:17:27;94055.63;;;4.98;54.44
7335;BME280;3708;42.632;23.378;2023-02-04T00:19:53;94058.31;;;5.06;54.56
7335;BME280;3708;42.632;23.378;2023-02-04T00:22:22;94049.84;;;4.87;55.11
7335;BME280;3708;42.632;23.378;2023-02-04T00:24:50;94055.41;;;4.94;55.22
7335;BME280;3708;42.632;23.378;2023-02-04T00:27:17;94059.06;;;4.80;56.55
7335;BME280;3708;42.632;23.378;2023-02-04T00:29:44;94055.31;;;4.99;56.27
7335;BME280;3708;42.632;23.378;2023-02-04T00:32:11;94045.72;;;5.00;55.59
7335;BME280;3708;42.632;23.378;2023-02-04T00:34:37;94038.03;;;5.08;55.95
7335;BME280;3708;42.632;23.378;2023-02-04T00:37:04;94043.09;;;5.13;56.23
7335;BME280;3708;42.632;23.378;2023-02-04T00:39:32;94046.97;;;5.02;56.31
7335;BME280;3708;42.632;23.378;2023-02-04T00:41:59;94055.03;;;5.14;56.28
7335;BME280;3708;42.632;23.378;2023-02-04T00:44:26;94054.00;;;5.15;55.71
7335;BME280;3708;42.632;23.378;2023-02-04T00:46:53;94047.72;;;5.16;55.90
7335;BME280;3708;42.632;23.378;2023-02-04T00:49:19;94041.78;;;5.02;56.90
7335;BME280;3708;42.632;23.378;2023-02-04T00:51:46;94037.03;;;5.31;56.47
7335;BME280;3708;42.632;23.378;2023-02-04T00:54:13;94034.44;;;5.45;56.07
7335;BME280;3708;42.632;23.378;2023-02-04T00:56:42;94030.00;;;5.46;55.78
7335;BME280;3708;42.632;23.378;2023-02-04T00:59:09;94039.97;;;5.52;55.40
7335;BME280;3708;42.632;23.378;2023-02-04T01:01:36;94028.06;;;5.51;55.23
7335;BME280;3708;42.632;23.378;2023-02-04T01:04:04;94029.34;;;5.40;55.22
7335;BME280;3708;42.632;23.378;2023-02-04T01:06:31;94019.03;;;5.49;55.52
7335;BME280;3708;42.632;23.378;2023-02-04T01:08:58;94008.94;;;5.33;55.87
7335;BME280;3708;42.632;23.378;2023-02-04T01:11:25;94026.00;;;5.26;55.74
7335;BME280;3708;42.632;23.378;2023-02-04T01:13:54;94005.47;;;5.38;55.90
7335;BME280;3708;42.632;23.378;2023-02-04T01:16:21;93997.31;;;5.45;55.55
7335;BME280;3708;42.632;23.378;2023-02-04T01:18:48;93989.97;;;5.47;55.81
7335;BME280;3708;42.632;23.378;2023-02-04T01:21:15;93982.28;;;5.41;55.49
7335;BME280;3708;42.632;23.378;2023-02-04T01:23:42;93991.38;;;5.17;55.80
7335;BME280;3708;42.632;23.378;2023-02-04T01:26:09;93981.56;;;5.14;56.36
7335;BME280;3708;42.632;23.378;2023-02-04T01:28:36;93973.16;;;5.30;55.83
7335;BME280;3708;42.632;23.378;2023-02-04T01:31:04;93981.00;;;5.03;56.45
7335;BME280;3708;42.632;23.378;2023-02-04T01:33:31;93968.72;;;4.95;56.48
7335;BME280;3708;42.632;23.378;2023-02-04T01:35:58;93976.97;;;5.11;56.40
7335;BME280;3708;42.632;23.378;2023-02-04T01:38:25;93958.59;;;5.07;56.09
7335;BME280;3708;42.632;23.378;2023-02-04T01:40:51;93963.44;;;5.00;56.02
7335;BME280;3708;42.632;23.378;2023-02-04T01:43:19;93952.75;;;4.88;56.10
7335;BME280;3708;42.632;23.378;2023-02-04T01:45:47;93952.28;;;4.86;56.17
7335;BME280;3708;42.632;23.378;2023-02-04T01:48:16;93947.44;;;5.07;55.88
7335;BME280;3708;42.632;23.378;2023-02-04T01:50:46;93943.31;;;4.92;56.00
7335;BME280;3708;42.632;23.378;2023-02-04T01:53:14;93949.25;;;5.20;55.33
7335;BME280;3708;42.632;23.378;2023-02-04T01:55:41;93944.81;;;5.34;55.14
7335;BME280;3708;42.632;23.378;2023-02-04T01:58:09;93945.69;;;5.29;55.25
7335;BME280;3708;42.632;23.378;2023-02-04T02:00:38;93937.03;;;5.20;55.15
7335;BME280;3708;42.632;23.378;2023-02-04T02:03:06;93936.56;;;5.18;55.36
7335;BME280;3708;42.632;23.378;2023-02-04T02:05:38;93939.06;;;5.23;55.18
7335;BME280;3708;42.632;23.378;2023-02-04T02:08:07;93926.69;;;5.43;54.37
7335;BME280;3708;42.632;23.378;2023-02-04T02:10:35;93928.59;;;5.51;54.53
7335;BME280;3708;42.632;23.378;2023-02-04T02:13:03;93932.66;;;5.43;54.16
7335;BME280;3708;42.632;23.378;2023-02-04T02:15:30;93932.59;;;5.57;54.08
7335;BME280;3708;42.632;23.378;2023-02-04T02:17:57;93934.81;;;5.27;54.32
7335;BME280;3708;42.632;23.378;2023-02-04T02:20:24;93911.53;;;5.36;54.18
7335;BME280;3708;42.632;23.378;2023-02-04T02:23:00;93914.84;;;5.14;55.21
7335;BME280;3708;42.632;23.378;2023-02-04T02:25:29;93909.03;;;5.31;54.41
7335;BME280;3708;42.632;23.378;2023-02-04T02:27:56;93910.75;;;5.35;54.73
7335;BME280;3708;42.632;23.378;2023-02-04T02:30:24;93894.06;;;5.14;54.85
7335;BME280;3708;42.632;23.378;2023-02-04T02:32:53;93890.53;;;5.10;54.53
7335;BME280;3708;42.632;23.378;2023-02-04T02:35:20;93880.63;;;5.12;54.98
7335;BME280;3708;42.632;23.378;2023-02-04T02:37:46;93863.41;;;5.16;54.65
7335;BME280;3708;42.632;23.378;2023-02-04T02:40:13;93854.22;;;5.32;54.26
7335;BME280;3708;42.632;23.378;2023-02-04T02:42:43;93844.31;;;5.34;54.11
7335;BME280;3708;42.632;23.378;2023-02-04T02:45:19;93835.84;;;5.51;53.99
7335;BME280;3708;42.632;23.378;2023-02-04T02:47:48;93836.25;;;5.45;53.73
7335;BME280;3708;42.632;23.378;2023-02-04T02:50:18;93826.69;;;5.54;53.73
7335;BME280;3708;42.632;23.378;2023-02-04T02:52:45;93823.50;;;5.57;53.26
7335;BME280;3708;42.632;23.378;2023-02-04T02:55:14;93829.25;;;5.45;53.75
7335;BME280;3708;42.632;23.378;2023-02-04T02:57:45;93827.28;;;5.51;53.49
7335;BME280;3708;42.632;23.378;2023-02-04T03:00:14;93840.47;;;5.32;54.25
7335;BME280;3708;42.632;23.378;2023-02-04T03:02:41;93827.06;;;5.38;54.15
7335;BME280;3708;42.632;23.378;2023-02-04T03:05:09;93828.94;;;5.47;53.53
7335;BME280;3708;42.632;23.378;2023-02-04T03:07:35;93838.50;;;5.60;53.05
7335;BME280;3708;42.632;23.378;2023-02-04T03:10:03;93849.59;;;5.52;53.23
7335;BME280;3708;42.632;23.378;2023-02-04T03:12:30;93827.84;;;5.39;53.56
7335;BME280;3708;42.632;23.378;2023-02-04T03:14:59;93826.47;;;5.19;54.46
7335;BME280;3708;42.632;23.378;2023-02-04T03:17:25;93844.03;;;5.22;54.19
7335;BME280;3708;42.632;23.378;2023-02-04T03:19:52;93847.22;;;5.41;53.95
7335;BME280;3708;42.632;23.378;2023-02-04T03:22:19;93851.00;;;5.35;54.23
7335;BME280;3708;42.632;23.378;2023-02-04T03:24:46;93853.72;;;5.30;54.22
7335;BME280;3708;42.632;23.378;2023-02-04T03:27:13;93848.13;;;5.15;54.00
7335;BME280;3708;42.632;23.378;2023-02-04T03:29:42;93848.63;;;5.03;55.06
7335;BME280;3708;42.632;23.378;2023-02-04T03:32:10;93825.59;;;5.24;54.78
7335;BME280;3708;42.632;23.378;2023-02-04T03:34:37;93831.66;;;5.19;54.54
7335;BME280;3708;42.632;23.378;2023-02-04T03:37:04;93824.16;;;5.40;54.04
7335;BME280;3708;42.632;23.378;2023-02-04T03:39:31;93824.28;;;5.35;53.97
7335;BME280;3708;42.632;23.378;2023-02-04T03:41:58;93828.72;;;5.34;54.01
7335;BME280;3708;42.632;23.378;2023-02-04T03:44:25;93826.91;;;5.43;53.40
7335;BME280;3708;42.632;23.378;2023-02-04T03:46:52;93827.75;;;5.53;53.14
7335;BME280;3708;42.632;23.378;2023-02-04T03:49:21;93824.31;;;5.66;52.73
7335;BME280;3708;42.632;23.378;2023-02-04T03:51:48;93821.38;;;5.59;52.44
7335;BME280;3708;42.632;23.378;2023-02-04T03:54:16;93808.78;;;5.52;52.31
7335;BME280;3708;42.632;23.378;2023-02-04T03:56:42;93805.38;;;4.99;53.67
7335;BME280;3708;42.632;23.378;2023-02-04T03:59:09;93799.41;;;4.98;55.05
7335;BME280;3708;42.632;23.378;2023-02-04T04:01:36;93791.59;;;5.34;53.76
7335;BME280;3708;42.632;23.378;2023-02-04T04:04:03;93771.75;;;5.38;53.42
7335;BME280;3708;42.632;23.378;2023-02-04T04:06:31;93777.94;;;5.51;53.52
7335;BME280;3708;42.632;23.378;2023-02-04T04:08:57;93773.34;;;5.48;53.14
7335;BME280;3708;42.632;23.378;2023-02-04T04:11:24;93764.06;;;5.55;53.13
7335;BME280;3708;42.632;23.378;2023-02-04T04:13:51;93746.19;;;5.54;52.70
7335;BME280;3708;42.632;23.378;2023-02-04T04:16:18;93754.09;;;5.49;53.13
7335;BME280;3708;42.632;23.378;2023-02-04T04:18:46;93740.84;;;5.28;52.90
7335;BME280;3708;42.632;23.378;2023-02-04T04:21:13;93747.34;;;5.17;53.79
7335;BME280;3708;42.632;23.378;2023-02-04T04:23:41;93752.28;;;5.05;54.02
7335;BME280;3708;42.632;23.378;2023-02-04T04:26:08;93737.38;;;5.10;54.35
7335;BME280;3708;42.632;23.378;2023-02-04T04:28:34;93744.97;;;5.29;53.71
7335;BME280;3708;42.632;23.378;2023-02-04T04:31:01;93760.78;;;5.19;53.43
7335;BME280;3708;42.632;23.378;2023-02-04T04:33:28;93763.78;;;5.34;53.79
7335;BME280;3708;42.632;23.378;2023-02-04T04:35:55;93764.97;;;5.28;53.27
7335;BME280;3708;42.632;23.378;2023-02-04T04:38:22;93772.94;;;5.10;54.36
7335;BME280;3708;42.632;23.378;2023-02-04T04:40:50;93768.03;;;5.30;54.25
7335;BME280;3708;42.632;23.378;2023-02-04T04:43:16;93783.44;;;5.49;54.04
7335;BME280;3708;42.632;23.378;2023-02-04T04:45:43;93782.19;;;5.47;53.12
7335;BME280;3708;42.632;23.378;2023-02-04T04:48:10;93779.97;;;5.31;53.93
7335;BME280;3708;42.632;23.378;2023-02-04T04:50:37;93795.50;;;5.23;53.95
7335;BME280;3708;42.632;23.378;2023-02-04T04:53:04;93795.53;;;5.31;53.89
7335;BME280;3708;42.632;23.378;2023-02-04T04:55:35;93799.47;;;5.51;53.98
7335;BME280;3708;42.632;23.378;2023-02-04T04:58:03;93791.53;;;5.48;53.40
7335;BME280;3708;42.632;23.378;2023-02-04T05:00:30;93800.00;;;5.39;53.50
7335;BME280;3708;42.632;23.378;2023-02-04T05:02:57;93787.53;;;5.50;53.51
7335;BME280;3708;42.632;23.378;2023-02-04T05:05:24;93792.16;;;5.53;53.57
7335;BME280;3708;42.632;23.378;2023-02-04T05:07:51;93790.28;;;5.45;53.38
7335;BME280;3708;42.632;23.378;2023-02-04T05:10:19;93797.97;;;5.59;53.75
7335;BME280;3708;42.632;23.378;2023-02-04T05:12:46;93784.44;;;5.39;53.92
7335;BME280;3708;42.632;23.378;2023-02-04T05:15:14;93792.00;;;5.27;54.67
7335;BME280;3708;42.632;23.378;2023-02-04T05:17:41;93783.69;;;5.17;55.10
7335;BME280;3708;42.632;23.378;2023-02-04T05:20:09;93785.16;;;5.09;56.33
7335;BME280;3708;42.632;23.378;2023-02-04T05:22:35;93799.06;;;5.13;55.59
7335;BME280;3708;42.632;23.378;2023-02-04T05:25:02;93811.94;;;5.18;56.27
7335;BME280;3708;42.632;23.378;2023-02-04T05:27:29;93799.06;;;5.13;56.40
7335;BME280;3708;42.632;23.378;2023-02-04T05:29:57;93796.25;;;5.23;56.53
7335;BME280;3708;42.632;23.378;2023-02-04T05:32:25;93815.00;;;5.20;56.88
7335;BME280;3708;42.632;23.378;2023-02-04T05:34:52;93819.25;;;5.16;56.86
7335;BME280;3708;42.632;23.378;2023-02-04T05:37:19;93824.56;;;5.11;57.02
7335;BME280;3708;42.632;23.378;2023-02-04T05:39:46;93821.50;;;5.09;57.75
7335;BME280;3708;42.632;23.378;2023-02-04T05:42:13;93826.00;;;4.82;59.70
7335;BME280;3708;42.632;23.378;2023-02-04T05:44:40;93842.09;;;5.06;58.46
7335;BME280;3708;42.632;23.378;2023-02-04T05:47:06;93824.44;;;4.45;60.32
7335;BME280;3708;42.632;23.378;2023-02-04T05:49:35;93859.13;;;4.22;61.11
7335;BME280;3708;42.632;23.378;2023-02-04T05:52:01;93845.88;;;4.10;61.97
7335;BME280;3708;42.632;23.378;2023-02-04T05:54:28;93878.38;;;3.24;65.01
7335;BME280;3708;42.632;23.378;2023-02-04T05:56:55;93848.25;;;3.47;64.80
7335;BME280;3708;42.632;23.378;2023-02-04T05:59:22;93828.78;;;3.17;64.17
7335;BME280;3708;42.632;23.378;2023-02-04T06:01:49;93818.03;;;3.42;63.62
7335;BME280;3708;42.632;23.378;2023-02-04T06:04:16;93806.72;;;3.52;62.79
7335;BME280;3708;42.632;23.378;2023-02-04T06:06:44;93818.50;;;4.31;59.77
7335;BME280;3708;42.632;23.378;2023-02-04T06:09:11;93816.13;;;4.07;59.77
7335;BME280;3708;42.632;23.378;2023-02-04T06:11:38;93826.47;;;4.21;58.92
7335;BME280;3708;42.632;23.378;2023-02-04T06:14:06;93840.94;;;4.49;57.29
7335;BME280;3708;42.632;23.378;2023-02-04T06:16:32;93820.97;;;4.63;56.22
7335;BME280;3708;42.632;23.378;2023-02-04T06:18:59;93820.00;;;4.59;54.70
7335;BME280;3708;42.632;23.378;2023-02-04T06:21:26;93814.97;;;4.76;54.58
7335;BME280;3708;42.632;23.378;2023-02-04T06:23:54;93809.72;;;4.54;54.73
7335;BME280;3708;42.632;23.378;2023-02-04T06:26:21;93815.56;;;4.59;54.91
7335;BME280;3708;42.632;23.378;2023-02-04T06:28:48;93813.03;;;4.32;55.30
7335;BME280;3708;42.632;23.378;2023-02-04T06:31:15;93814.81;;;4.59;54.51
7335;BME280;3708;42.632;23.378;2023-02-04T06:33:41;93865.31;;;4.75;54.22
7335;BME280;3708;42.632;23.378;2023-02-04T06:36:11;93852.56;;;4.79;57.35
7335;BME280;3708;42.632;23.378;2023-02-04T06:38:37;93821.97;;;4.89;53.78
7335;BME280;3708;42.632;23.378;2023-02-04T06:41:06;93831.19;;;4.82;53.71
7335;BME280;3708;42.632;23.378;2023-02-04T06:43:33;93829.59;;;4.72;53.71
7335;BME280;3708;42.632;23.378;2023-02-04T06:46:02;93831.53;;;5.02;53.07
7335;BME280;3708;42.632;23.378;2023-02-04T06:48:29;93812.13;;;5.22;52.12
7335;BME280;3708;42.632;23.378;2023-02-04T06:50:59;93834.53;;;4.96;52.74
7335;BME280;3708;42.632;23.378;2023-02-04T06:53:25;93825.88;;;5.22;51.90
7335;BME280;3708;42.632;23.378;2023-02-04T06:55:52;93819.22;;;5.30;52.02
7335;BME280;3708;42.632;23.378;2023-02-04T06:58:20;93842.31;;;5.18;52.10
7335;BME280;3708;42.632;23.378;2023-02-04T07:00:47;93824.09;;;5.09;52.31
7335;BME280;3708;42.632;23.378;2023-02-04T07:03:14;93816.56;;;4.63;53.00
7335;BME280;3708;42.632;23.378;2023-02-04T07:05:41;93812.16;;;4.86;53.34
7335;BME280;3708;42.632;23.378;2023-02-04T07:08:08;93824.41;;;5.30;52.06
7335;BME280;3708;42.632;23.378;2023-02-04T07:10:34;93834.19;;;4.75;52.97
7335;BME280;3708;42.632;23.378;2023-02-04T07:13:01;93807.47;;;5.10;52.26
7335;BME280;3708;42.632;23.378;2023-02-04T07:15:29;93818.06;;;5.22;51.92
7335;BME280;3708;42.632;23.378;2023-02-04T07:17:56;93811.59;;;5.11;52.45
7335;BME280;3708;42.632;23.378;2023-02-04T07:20:23;93811.69;;;5.51;51.36
7335;BME280;3708;42.632;23.378;2023-02-04T07:22:50;93820.91;;;5.12;52.23
7335;BME280;3708;42.632;23.378;2023-02-04T07:25:17;93829.19;;;5.14;52.56
7335;BME280;3708;42.632;23.378;2023-02-04T07:27:44;93796.25;;;5.01;52.85
7335;BME280;3708;42.632;23.378;2023-02-04T07:30:13;93803.22;;;5.36;52.35
7335;BME280;3708;42.632;23.378;2023-02-04T07:32:41;93806.91;;;5.44;52.25
7335;BME280;3708;42.632;23.378;2023-02-04T07:35:09;93806.59;;;5.90;51.69
7335;BME280;3708;42.632;23.378;2023-02-04T07:37:36;93811.22;;;5.71;51.18
7335;BME280;3708;42.632;23.378;2023-02-04T07:40:03;93805.03;;;5.58;50.32
7335;BME280;3708;42.632;23.378;2023-02-04T07:42:30;93825.44;;;6.04;49.80
7335;BME280;3708;42.632;23.378;2023-02-04T07:44:57;93822.91;;;6.21;49.63
7335;BME280;3708;42.632;23.378;2023-02-04T07:47:23;93811.03;;;5.98;49.84
7335;BME280;3708;42.632;23.378;2023-02-04T07:49:51;93807.00;;;6.14;50.52
7335;BME280;3708;42.632;23.378;2023-02-04T07:52:21;93810.00;;;6.47;49.45
7335;BME280;3708;42.632;23.378;2023-02-04T07:54:48;93805.41;;;6.04;50.41
7335;BME280;3708;42.632;23.378;2023-02-04T07:57:16;93803.19;;;6.20;49.75
7335;BME280;3708;42.632;23.378;2023-02-04T07:59:43;93806.03;;;6.01;50.81
7335;BME280;3708;42.632;23.378;2023-02-04T08:02:10;93827.34;;;5.59;51.00
7335;BME280;3708;42.632;23.378;2023-02-04T08:04:37;93810.44;;;5.70;50.85
7335;BME280;3708;42.632;23.378;2023-02-04T08:07:06;93794.06;;;5.92;50.39
7335;BME280;3708;42.632;23.378;2023-02-04T08:09:33;93796.84;;;5.43;51.34
7335;BME280;3708;42.632;23.378;2023-02-04T08:12:00;93810.97;;;5.59;51.27
7335;BME280;3708;42.632;23.378;2023-02-04T08:14:26;93796.00;;;5.56;51.14
7335;BME280;3708;42.632;23.378;2023-02-04T08:16:53;93805.34;;;5.12;52.68
7335;BME280;3708;42.632;23.378;2023-02-04T08:19:20;93789.16;;;5.37;52.42
7335;BME280;3708;42.632;23.378;2023-02-04T08:21:47;93798.38;;;5.21;52.50
7335;BME280;3708;42.632;23.378;2023-02-04T08:24:16;93819.50;;;5.51;52.16
7335;BME280;3708;42.632;23.378;2023-02-04T08:26:43;93789.13;;;5.60;51.95
7335;BME280;3708;42.632;23.378;2023-02-04T08:29:10;93808.31;;;5.50;51.80
7335;BME280;3708;42.632;23.378;2023-02-04T08:31:37;93803.81;;;5.33;52.91
7335;BME280;3708;42.632;23.378;2023-02-04T08:34:04;93803.69;;;5.16;53.34
7335;BME280;3708;42.632;23.378;2023-02-04T08:36:31;93793.16;;;5.43;52.58
7335;BME280;3708;42.632;23.378;2023-02-04T08:38:58;93801.53;;;5.93;51.23
7335;BME280;3708;42.632;23.378;2023-02-04T08:41:26;93801.34;;;5.59;51.91
7335;BME280;3708;42.632;23.378;2023-02-04T08:43:53;93783.13;;;5.28;52.89
7335;BME280;3708;42.632;23.378;2023-02-04T08:46:20;93790.72;;;5.38;53.09
7335;BME280;3708;42.632;23.378;2023-02-04T08:48:47;93786.56;;;5.90;51.75
7335;BME280;3708;42.632;23.378;2023-02-04T08:51:14;93786.03;;;5.49;52.54
7335;BME280;3708;42.632;23.378;2023-02-04T08:53:41;93802.16;;;5.37;52.95
7335;BME280;3708;42.632;23.378;2023-02-04T08:56:08;93790.34;;;5.31;53.54
7335;BME280;3708;42.632;23.378;2023-02-04T08:58:41;93798.91;;;5.85;52.25
7335;BME280;3708;42.632;23.378;2023-02-04T09:01:08;93796.84;;;6.04;52.36
7335;BME280;3708;42.632;23.378;2023-02-04T09:03:37;93791.50;;;6.09;51.91
7335;BME280;3708;42.632;23.378;2023-02-04T09:06:04;93791.38;;;6.14;51.65
7335;BME280;3708;42.632;23.378;2023-02-04T09:08:31;93797.28;;;6.45;50.52
7335;BME280;3708;42.632;23.378;2023-02-04T09:10:58;93796.59;;;6.14;50.89
7335;BME280;3708;42.632;23.378;2023-02-04T09:13:25;93800.19;;;6.44;50.77
7335;BME280;3708;42.632;23.378;2023-02-04T09:15:55;93796.47;;;6.28;50.43
7335;BME280;3708;42.632;23.378;2023-02-04T09:18:22;93777.56;;;6.61;50.25
7335;BME280;3708;42.632;23.378;2023-02-04T09:20:50;93785.06;;;6.54;49.24
7335;BME280;3708;42.632;23.378;2023-02-04T09:23:18;93784.13;;;6.42;49.75
7335;BME280;3708;42.632;23.378;2023-02-04T09:25:45;93776.31;;;6.50;48.67
7335;BME280;3708;42.632;23.378;2023-02-04T09:28:12;93775.84;;;5.92;50.48
7335;BME280;3708;42.632;23.378;2023-02-04T09:30:43;93758.69;;;6.30;48.86
7335;BME280;3708;42.632;23.378;2023-02-04T09:33:14;93791.78;;;6.47;48.98
7335;BME280;3708;42.632;23.378;2023-02-04T09:35:41;93800.44;;;5.86;49.87
7335;BME280;3708;42.632;23.378;2023-02-04T09:38:08;93787.72;;;6.15;50.20
7335;BME280;3708;42.632;23.378;2023-02-04T09:40:37;93787.91;;;6.27;50.13
7335;BME280;3708;42.632;23.378;2023-02-04T09:43:06;93783.22;;;5.68;52.05
7335;BME280;3708;42.632;23.378;2023-02-04T09:45:36;93788.78;;;5.83;52.37
7335;BME280;3708;42.632;23.378;2023-02-04T09:48:04;93782.66;;;5.49;53.84
7335;BME280;3708;42.632;23.378;2023-02-04T09:50:33;93763.91;;;5.29;54.68
7335;BME280;3708;42.632;23.378;2023-02-04T09:53:03;93752.41;;;5.53;55.20
7335;BME280;3708;42.632;23.378;2023-02-04T09:55:32;93758.88;;;5.33;56.21
7335;BME280;3708;42.632;23.378;2023-02-04T09:57:59;93751.47;;;5.49;55.77
7335;BME280;3708;42.632;23.378;2023-02-04T10:00:28;93765.81;;;5.15;57.57
7335;BME280;3708;42.632;23.378;2023-02-04T10:02:56;93754.66;;;5.15;56.86
7335;BME280;3708;42.632;23.378;2023-02-04T10:05:27;93742.94;;;5.17;56.94
7335;BME280;3708;42.632;23.378;2023-02-04T10:07:56;93737.38;;;5.32;56.22
7335;BME280;3708;42.632;23.378;2023-02-04T10:10:24;93742.03;;;5.53;54.96
7335;BME280;3708;42.632;23.378;2023-02-04T10:12:54;93732.19;;;5.72;54.16
7335;BME280;3708;42.632;23.378;2023-02-04T10:15:22;93744.28;;;5.46;54.81
7335;BME280;3708;42.632;23.378;2023-02-04T10:17:51;93744.19;;;5.28;54.85
7335;BME280;3708;42.632;23.378;2023-02-04T10:20:20;93695.81;;;5.32;54.51
7335;BME280;3708;42.632;23.378;2023-02-04T10:22:49;93715.59;;;5.51;53.81
7335;BME280;3708;42.632;23.378;2023-02-04T10:25:19;93716.16;;;5.78;53.13
7335;BME280;3708;42.632;23.378;2023-02-04T10:27:48;93705.19;;;5.51;54.65
7335;BME280;3708;42.632;23.378;2023-02-04T10:30:20;93715.00;;;5.23;55.43
7335;BME280;3708;42.632;23.378;2023-02-04T10:32:47;93699.63;;;5.35;55.47
7335;BME280;3708;42.632;23.378;2023-02-04T10:35:15;93716.81;;;5.22;55.64
7335;BME280;3708;42.632;23.378;2023-02-04T10:37:43;93740.28;;;5.39;54.66
7335;BME280;3708;42.632;23.378;2023-02-04T10:40:27;93710.22;;;5.78;54.21
7335;BME280;3708;42.632;23.378;2023-02-04T10:42:54;93699.91;;;5.03;56.33
7335;BME280;3708;42.632;23.378;2023-02-04T10:45:22;93739.53;;;5.39;56.24
7335;BME280;3708;42.632;23.378;2023-02-04T10:47:50;93701.66;;;4.63;59.90
7335;BME280;3708;42.632;23.378;2023-02-04T10:50:19;93713.31;;;4.74;60.54
7335;BME280;3708;42.632;23.378;2023-02-04T10:52:48;93706.59;;;5.17;58.51
7335;BME280;3708;42.632;23.378;2023-02-04T10:55:18;93686.56;;;4.87;60.20
7335;BME280;3708;42.632;23.378;2023-02-04T10:57:47;93712.38;;;4.92;61.14
7335;BME280;3708;42.632;23.378;2023-02-04T11:00:17;93705.75;;;5.08;59.58
7335;BME280;3708;42.632;23.378;2023-02-04T11:02:48;93697.88;;;4.91;59.06
7335;BME280;3708;42.632;23.378;2023-02-04T11:05:18;93680.41;;;5.36;59.15
7335;BME280;3708;42.632;23.378;2023-02-04T11:07:46;93691.16;;;5.52;58.96
7335;BME280;3708;42.632;23.378;2023-02-04T11:10:15;93681.56;;;5.21;59.09
7335;BME280;3708;42.632;23.378;2023-02-04T11:12:44;93691.31;;;5.24;57.87
7335;BME280;3708;42.632;23.378;2023-02-04T11:15:44;93704.78;;;5.57;57.10
7335;BME280;3708;42.632;23.378;2023-02-04T11:18:23;93686.47;;;5.31;57.09
7335;BME280;3708;42.632;23.378;2023-02-04T11:20:54;93697.06;;;5.83;55.89
7335;BME280;3708;42.632;23.378;2023-02-04T11:23:35;93684.28;;;5.95;55.02
7335;BME280;3708;42.632;23.378;2023-02-04T11:26:05;93677.09;;;5.53;55.52
7335;BME280;3708;42.632;23.378;2023-02-04T11:31:59;93690.22;;;5.87;55.27
7335;BME280;3708;42.632;23.378;2023-02-04T11:34:30;93711.66;;;5.92;54.99
7335;BME280;3708;42.632;23.378;2023-02-04T11:37:13;93698.38;;;6.11;54.80
7335;BME280;3708;42.632;23.378;2023-02-04T11:39:42;93703.06;;;5.53;56.77
7335;BME280;3708;42.632;23.378;2023-02-04T11:42:17;93698.59;;;5.45;56.28
7335;BME280;3708;42.632;23.378;2023-02-04T11:44:48;93678.88;;;5.83;55.74
7335;BME280;3708;42.632;23.378;2023-02-04T11:47:16;93704.91;;;5.91;55.51
7335;BME280;3708;42.632;23.378;2023-02-04T11:49:45;93696.91;;;5.79;56.27
7335;BME280;3708;42.632;23.378;2023-02-04T11:52:18;93696.59;;;5.81;56.92
7335;BME280;3708;42.632;23.378;2023-02-04T11:54:52;93704.28;;;5.47;58.13
7335;BME280;3708;42.632;23.378;2023-02-04T11:57:19;93695.44;;;5.17;58.09
7335;BME280;3708;42.632;23.378;2023-02-04T11:59:46;93691.81;;;5.66;57.96
7335;BME280;3708;42.632;23.378;2023-02-04T12:02:16;93680.66;;;6.39;56.04
7335;BME280;3708;42.632;23.378;2023-02-04T12:04:54;93691.78;;;5.96;56.83
7335;BME280;3708;42.632;23.378;2023-02-04T12:07:26;93690.31;;;5.73;57.56
7335;BME280;3708;42.632;23.378;2023-02-04T12:09:53;93671.44;;;5.51;58.09
7335;BME280;3708;42.632;23.378;2023-02-04T12:12:25;93666.84;;;5.48;59.30
7335;BME280;3708;42.632;23.378;2023-02-04T12:14:57;93677.59;;;5.63;59.25
7335;BME280;3708;42.632;23.378;2023-02-04T12:17:28;93685.00;;;5.08;61.01
7335;BME280;3708;42.632;23.378;2023-02-04T12:19:55;93661.03;;;5.11;61.22
7335;BME280;3708;42.632;23.378;2023-02-04T12:22:21;93688.44;;;4.95;61.46
7335;BME280;3708;42.632;23.378;2023-02-04T12:24:48;93663.41;;;4.99;61.87
7335;BME280;3708;42.632;23.378;2023-02-04T12:27:16;93657.34;;;4.82;62.47
7335;BME280;3708;42.632;23.378;2023-02-04T12:29:43;93669.50;;;4.73;63.12
7335;BME280;3708;42.632;23.378;2023-02-04T12:32:10;93650.47;;;5.38;61.00
7335;BME280;3708;42.632;23.378;2023-02-04T12:34:38;93663.41;;;4.99;61.83
7335;BME280;3708;42.632;23.378;2023-02-04T12:37:05;93643.81;;;4.85;62.63
7335;BME280;3708;42.632;23.378;2023-02-04T12:39:32;93658.38;;;4.72;63.17
7335;BME280;3708;42.632;23.378;2023-02-04T12:41:59;93669.47;;;5.17;62.05
7335;BME280;3708;42.632;23.378;2023-02-04T12:44:26;93650.53;;;5.16;62.26
7335;BME280;3708;42.632;23.378;2023-02-04T12:46:53;93658.22;;;4.99;61.50
7335;BME280;3708;42.632;23.378;2023-02-04T12:49:20;93664.38;;;5.43;60.18
7335;BME280;3708;42.632;23.378;2023-02-04T12:51:50;93666.44;;;5.23;60.08
7335;BME280;3708;42.632;23.378;2023-02-04T12:54:17;93667.19;;;5.15;59.25
7335;BME280;3708;42.632;23.378;2023-02-04T12:56:44;93676.22;;;5.26;58.62
7335;BME280;3708;42.632;23.378;2023-02-04T12:59:10;93649.97;;;4.97;59.29
7335;BME280;3708;42.632;23.378;2023-02-04T13:01:37;93646.84;;;5.57;57.55
7335;BME280;3708;42.632;23.378;2023-02-04T13:04:04;93666.28;;;5.28;57.53
7335;BME280;3708;42.632;23.378;2023-02-04T13:06:31;93665.72;;;5.31;58.04
7335;BME280;3708;42.632;23.378;2023-02-04T13:08:59;93701.00;;;5.72;56.18
7335;BME280;3708;42.632;23.378;2023-02-04T13:11:26;93659.69;;;5.22;56.90
7335;BME280;3708;42.632;23.378;2023-02-04T13:13:53;93668.59;;;5.30;57.40
7335;BME280;3708;42.632;23.378;2023-02-04T13:16:19;93664.91;;;5.22;56.98
7335;BME280;3708;42.632;23.378;2023-02-04T13:18:49;93684.66;;;5.01;57.77
7335;BME280;3708;42.632;23.378;2023-02-04T13:21:16;93672.88;;;5.26;57.36
7335;BME280;3708;42.632;23.378;2023-02-04T13:23:43;93673.03;;;5.69;56.87
7335;BME280;3708;42.632;23.378;2023-02-04T13:26:11;93679.41;;;5.23;57.59
7335;BME280;3708;42.632;23.378;2023-02-04T13:28:38;93692.59;;;5.35;57.94